createdAt,value
2023-04-29T00:01:29.373Z,10.60
2023-04-29T00:04:14.717Z,8.55
2023-04-29T00:07:00.122Z,10.90
2023-04-29T00:09:44.936Z,10.05
2023-04-29T00:12:31.887Z,12.68
2023-04-29T00:15:17.345Z,8.40
2023-04-29T00:18:02.663Z,8.70
2023-04-29T00:20:47.889Z,7.93
2023-04-29T00:23:33.557Z,9.00
2023-04-29T00:26:18.852Z,8.30
2023-04-29T00:29:06.177Z,8.60
2023-04-29T00:31:51.158Z,12.98
2023-04-29T00:34:36.608Z,9.93
2023-04-29T00:37:22.059Z,9.27
2023-04-29T00:40:08.664Z,11.07
2023-04-29T00:42:54.075Z,8.00
2023-04-29T00:45:38.919Z,9.13
2023-04-29T00:48:23.914Z,8.80
2023-04-29T00:51:09.260Z,9.65
2023-04-29T00:53:54.637Z,9.18
2023-04-29T00:56:41.838Z,7.83
2023-04-29T00:59:32.128Z,8.65
2023-04-29T01:46:37.376Z,10.55
2023-04-29T01:49:26.685Z,8.35
2023-04-29T01:52:12.614Z,10.48
2023-04-29T01:54:59.883Z,9.73
2023-04-29T01:57:52.291Z,10.53
2023-04-29T02:47:33.165Z,7.95
2023-04-29T02:50:18.637Z,8.23
2023-04-29T02:53:04.136Z,9.80
2023-04-29T02:55:49.445Z,8.27
2023-04-29T02:58:34.862Z,10.47
2023-04-29T03:45:57.853Z,6.97
2023-04-29T03:48:44.264Z,7.97
2023-04-29T03:51:29.752Z,7.10
2023-04-29T03:54:24.023Z,6.20
2023-04-29T03:57:09.467Z,6.88
2023-04-29T03:59:55.166Z,6.10
2023-04-29T04:48:07.855Z,8.90
2023-04-29T04:50:56.315Z,8.02
2023-04-29T04:53:41.877Z,5.85
2023-04-29T04:56:31.260Z,6.35
2023-04-29T04:59:16.232Z,6.00
2023-04-29T05:02:01.512Z,7.00
2023-04-29T05:04:46.841Z,5.50
2023-04-29T05:07:37.317Z,7.57
2023-04-29T05:10:26.446Z,6.82
2023-04-29T05:13:13.475Z,7.53
2023-04-29T05:16:02.845Z,8.27
2023-04-29T05:18:49.377Z,6.70
2023-04-29T05:21:35.421Z,7.95
2023-04-29T05:24:20.738Z,6.28
2023-04-29T05:27:07.300Z,7.80
2023-04-29T05:29:53.308Z,5.75
2023-04-29T05:32:38.668Z,5.95
2023-04-29T05:35:26.416Z,6.75
2023-04-29T05:38:12.881Z,6.88
2023-04-29T05:40:59.713Z,7.43
2023-04-29T05:44:03.424Z,6.85
2023-04-29T05:46:51.655Z,5.88
2023-04-29T05:49:37.576Z,7.00
2023-04-29T05:52:22.920Z,5.45
2023-04-29T05:55:10.499Z,6.80
2023-04-29T05:57:55.959Z,5.90
2023-04-29T06:00:41.510Z,6.45
2023-04-29T06:03:34.550Z,5.15
2023-04-29T06:06:38.673Z,7.30
2023-04-29T06:09:46.962Z,5.87
2023-04-29T06:12:32.364Z,7.65
2023-04-29T06:15:17.739Z,5.75
2023-04-29T06:18:03.657Z,6.72
2023-04-29T06:20:48.881Z,5.97
2023-04-29T06:23:34.322Z,5.50
2023-04-29T06:26:23.524Z,6.85
2023-04-29T06:29:09.138Z,5.93
2023-04-29T06:31:56.123Z,7.97
2023-04-29T06:34:41.458Z,7.55
2023-04-29T06:37:58.825Z,6.57
2023-04-29T06:40:57.766Z,6.28
2023-04-29T06:44:05.692Z,6.60
2023-04-29T06:47:05.824Z,6.05
2023-04-29T06:50:13.213Z,5.30
2023-04-29T06:52:58.469Z,8.67
2023-04-29T06:55:43.404Z,5.07
2023-04-29T06:58:28.584Z,6.47
2023-04-29T07:01:14.036Z,6.15
2023-04-29T07:03:59.753Z,6.45
2023-04-29T07:06:46.983Z,4.83
2023-04-29T07:09:32.280Z,6.93
2023-04-29T07:12:17.357Z,5.95
2023-04-29T07:15:02.771Z,5.45
2023-04-29T07:17:47.963Z,6.70
2023-04-29T07:20:33.247Z,5.10
2023-04-29T07:23:18.685Z,6.15
2023-04-29T07:26:11.852Z,5.63
2023-04-29T07:28:57.376Z,5.05
2023-04-29T07:31:42.532Z,5.35
2023-04-29T07:34:28.067Z,6.27
2023-04-29T07:37:13.810Z,4.88
2023-04-29T07:39:58.795Z,4.50
2023-04-29T07:42:44.344Z,4.28
2023-04-29T07:45:31.519Z,5.47
2023-04-29T07:48:16.943Z,7.70
2023-04-29T07:51:01.775Z,4.85
2023-04-29T07:53:46.721Z,5.28
2023-04-29T07:56:32.175Z,5.32
2023-04-29T07:59:16.826Z,4.78
2023-04-29T08:02:01.841Z,5.00
2023-04-29T08:04:47.620Z,4.93
2023-04-29T08:07:32.713Z,4.50
2023-04-29T08:10:18.981Z,4.68
2023-04-29T08:13:04.445Z,4.55
2023-04-29T08:15:50.448Z,4.70
2023-04-29T08:18:36.610Z,6.38
2023-04-29T08:21:22.054Z,5.07
2023-04-29T08:24:07.482Z,5.75
2023-04-29T08:26:53.707Z,4.45
2023-04-29T08:29:39.302Z,7.13
2023-04-29T08:32:24.599Z,4.88
2023-04-29T08:35:10.339Z,4.97
2023-04-29T08:37:55.355Z,4.90
2023-04-29T08:40:44.166Z,5.70
2023-04-29T08:43:29.490Z,5.53
2023-04-29T08:46:14.882Z,5.60
2023-04-29T08:49:03.837Z,4.95
2023-04-29T08:51:51.555Z,5.28
2023-04-29T08:54:36.461Z,5.93
2023-04-29T08:57:21.745Z,5.07
2023-04-29T09:00:13.207Z,6.38
2023-04-29T09:02:58.697Z,4.78
2023-04-29T09:05:45.843Z,5.50
2023-04-29T09:08:31.021Z,8.88
2023-04-29T09:11:16.409Z,10.87
2023-04-29T09:14:01.970Z,13.40
2023-04-29T09:16:47.716Z,11.23
2023-04-29T09:19:36.471Z,13.50
2023-04-29T09:22:21.830Z,13.00
2023-04-29T09:25:13.028Z,11.27
2023-04-29T09:27:58.305Z,13.93
2023-04-29T09:30:47.199Z,13.93
2023-04-29T09:33:32.507Z,10.93
2023-04-29T09:36:37.736Z,12.05
2023-04-29T09:39:23.672Z,11.50
2023-04-29T09:42:09.523Z,14.50
2023-04-29T09:44:54.850Z,11.02
2023-04-29T09:47:40.116Z,9.90
2023-04-29T09:50:25.787Z,17.42
2023-04-29T09:53:11.584Z,12.30
2023-04-29T09:55:59.973Z,10.60
2023-04-29T09:58:45.937Z,9.75
2023-04-29T10:01:32.022Z,11.82
2023-04-29T10:04:18.908Z,11.25
2023-04-29T10:07:04.504Z,12.87
2023-04-29T10:09:50.544Z,10.48
2023-04-29T10:12:36.056Z,11.68
2023-04-29T10:15:40.546Z,15.15
2023-04-29T10:18:48.573Z,12.98
2023-04-29T10:21:33.728Z,11.07
2023-04-29T10:24:21.556Z,16.58
2023-04-29T10:27:12.215Z,11.90
2023-04-29T10:29:58.666Z,13.15
2023-04-29T10:32:50.973Z,13.63
2023-04-29T10:35:37.686Z,11.30
2023-04-29T10:38:37.272Z,14.80
2023-04-29T10:41:26.891Z,10.00
2023-04-29T10:44:12.253Z,14.32
2023-04-29T10:47:27.309Z,11.68
2023-04-29T10:50:12.429Z,9.57
2023-04-29T10:52:58.609Z,10.85
2023-04-29T10:55:47.016Z,11.23
2023-04-29T10:58:38.975Z,9.90
2023-04-29T11:01:40.160Z,12.95
2023-04-29T11:04:25.834Z,10.80
2023-04-29T11:07:26.104Z,10.65
2023-04-29T11:10:13.024Z,10.02
2023-04-29T11:13:16.947Z,9.07
2023-04-29T11:16:09.183Z,15.80
2023-04-29T11:19:07.385Z,14.23
2023-04-29T11:22:03.787Z,8.68
2023-04-29T11:24:49.778Z,10.15
2023-04-29T11:27:40.197Z,8.98
2023-04-29T11:30:25.958Z,8.07
2023-04-29T11:33:10.955Z,9.43
2023-04-29T11:35:56.565Z,9.43
2023-04-29T11:38:41.721Z,9.60
2023-04-29T11:41:26.933Z,9.10
2023-04-29T11:44:12.085Z,11.13
2023-04-29T11:47:06.642Z,11.50
2023-04-29T11:49:51.776Z,12.75
2023-04-29T11:52:37.828Z,10.15
2023-04-29T11:55:22.841Z,12.60
2023-04-29T11:58:07.732Z,9.10
2023-04-29T12:00:53.278Z,8.20
2023-04-29T12:03:38.545Z,8.52
2023-04-29T12:06:27.156Z,8.80
2023-04-29T12:09:12.369Z,8.80
2023-04-29T12:11:57.445Z,9.60
2023-04-29T12:14:42.701Z,9.40
2023-04-29T12:17:27.853Z,9.32
2023-04-29T12:20:13.309Z,9.15
2023-04-29T12:23:11.251Z,9.32
2023-04-29T12:25:57.730Z,9.95
2023-04-29T12:28:42.928Z,8.13
2023-04-29T12:31:34.798Z,10.98
2023-04-29T12:34:28.478Z,8.30
2023-04-29T12:37:13.462Z,8.35
2023-04-29T12:39:59.245Z,9.93
2023-04-29T12:42:47.796Z,8.70
2023-04-29T12:45:34.032Z,8.30
2023-04-29T12:48:26.766Z,9.80
2023-04-29T12:51:16.512Z,8.10
2023-04-29T12:54:01.859Z,9.55
2023-04-29T12:56:48.505Z,10.83
2023-04-29T12:59:34.335Z,8.13
2023-04-29T13:02:19.410Z,7.93
2023-04-29T13:05:05.123Z,8.18
2023-04-29T13:07:50.642Z,7.85
2023-04-29T13:10:36.015Z,9.83
2023-04-29T13:13:21.594Z,9.50
2023-04-29T13:16:06.562Z,7.60
2023-04-29T13:19:08.256Z,11.88
2023-04-29T13:21:56.895Z,8.38
2023-04-29T13:24:42.975Z,7.17
2023-04-29T13:27:28.296Z,7.90
2023-04-29T13:30:13.719Z,7.22
2023-04-29T13:33:05.018Z,8.77
2023-04-29T13:35:54.393Z,7.10
2023-04-29T13:38:39.453Z,7.33
2023-04-29T13:41:26.506Z,9.73
2023-04-29T13:44:23.831Z,9.95
2023-04-29T13:47:14.299Z,8.32
2023-04-29T13:56:11.516Z,8.07
2023-04-29T13:59:30.556Z,9.07
2023-04-29T14:04:35.788Z,8.85
2023-04-29T14:07:21.000Z,8.80
2023-04-29T14:10:06.641Z,9.00
2023-04-29T14:12:51.708Z,9.20
2023-04-29T14:15:36.727Z,8.77
2023-04-29T14:18:21.960Z,10.32
2023-04-29T14:21:06.806Z,10.33
2023-04-29T14:23:51.908Z,8.05
2023-04-29T14:26:37.059Z,8.95
2023-04-29T14:29:21.990Z,7.63
2023-04-29T14:32:07.438Z,8.05
2023-04-29T14:34:52.604Z,10.33
2023-04-29T14:37:37.736Z,8.50
2023-04-29T14:40:22.659Z,8.25
2023-04-29T14:43:08.067Z,7.85
2023-04-29T14:45:53.045Z,8.57
2023-04-29T14:48:38.616Z,8.33
2023-04-29T14:51:23.786Z,8.90
2023-04-29T14:54:09.112Z,8.07
2023-04-29T14:56:54.327Z,8.18
2023-04-29T14:59:39.260Z,7.20
2023-04-29T15:02:24.135Z,6.60
2023-04-29T15:05:09.324Z,7.53
2023-04-29T15:07:54.184Z,7.07
2023-04-29T15:10:39.087Z,7.97
2023-04-29T15:13:23.944Z,7.13
2023-04-29T15:16:09.086Z,7.23
2023-04-29T15:18:54.207Z,8.55
2023-04-29T15:21:39.621Z,8.90
2023-04-29T15:24:24.712Z,7.82
2023-04-29T15:27:09.920Z,8.23
2023-04-29T15:29:56.923Z,7.27
2023-04-29T15:32:41.777Z,7.63
2023-04-29T15:35:27.704Z,6.72
2023-04-29T15:38:12.980Z,7.10
2023-04-29T15:41:00.990Z,6.20
2023-04-29T15:43:45.899Z,7.50
2023-04-29T15:46:31.095Z,6.80
2023-04-29T15:49:16.566Z,8.13
2023-04-29T15:52:01.662Z,7.63
2023-04-29T15:54:46.996Z,7.45
2023-04-29T15:57:32.296Z,8.43
2023-04-29T16:00:17.503Z,6.30
2023-04-29T16:03:02.810Z,6.60
2023-04-29T16:05:49.609Z,6.78
2023-04-29T16:08:34.491Z,8.00
2023-04-29T16:11:19.417Z,8.03
2023-04-29T16:14:04.209Z,6.38
2023-04-29T16:16:49.409Z,8.13
2023-04-29T16:19:37.103Z,6.05
2023-04-29T16:22:22.317Z,5.38
2023-04-29T16:25:07.768Z,6.87
2023-04-29T16:27:53.685Z,6.85
2023-04-29T16:30:39.142Z,7.65
2023-04-29T16:33:24.414Z,6.88
2023-04-29T16:36:09.252Z,6.20
2023-04-29T16:38:54.891Z,6.97
2023-04-29T16:41:40.034Z,8.20
2023-04-29T16:44:25.029Z,7.25
2023-04-29T16:47:10.334Z,8.07
2023-04-29T16:49:56.075Z,6.38
2023-04-29T16:52:42.034Z,7.27
2023-04-29T16:55:26.932Z,5.47
2023-04-29T16:58:11.959Z,7.55
2023-04-29T17:00:56.878Z,6.38
2023-04-29T17:03:41.986Z,6.30
2023-04-29T17:06:27.717Z,6.80
2023-04-29T17:09:12.656Z,5.70
2023-04-29T17:11:57.975Z,6.25
2023-04-29T17:14:43.329Z,5.82
2023-04-29T17:17:28.530Z,6.55
2023-04-29T17:20:13.680Z,10.37
2023-04-29T17:22:58.593Z,10.73
2023-04-29T17:25:43.543Z,10.48
2023-04-29T17:28:29.285Z,10.25
2023-04-29T17:31:15.297Z,7.72
2023-04-29T17:34:08.192Z,8.67
2023-04-29T17:36:53.307Z,10.93
2023-04-29T17:39:38.325Z,9.20
2023-04-29T17:42:23.071Z,7.03
2023-04-29T17:45:08.335Z,10.20
2023-04-29T17:47:53.462Z,6.47
2023-04-29T17:50:38.839Z,6.07
2023-04-29T17:53:23.696Z,7.13
2023-04-29T17:56:08.488Z,6.28
2023-04-29T17:58:53.705Z,5.53
2023-04-29T18:01:38.950Z,8.73
2023-04-29T18:04:24.441Z,9.65
2023-04-29T18:07:09.616Z,9.63
2023-04-29T18:09:54.548Z,5.75
2023-04-29T18:12:40.207Z,6.05
2023-04-29T18:15:25.514Z,7.53
2023-04-29T18:18:11.066Z,6.05
2023-04-29T18:20:56.442Z,7.50
2023-04-29T18:23:41.841Z,7.82
2023-04-29T18:26:27.025Z,6.00
2023-04-29T18:29:12.382Z,8.67
2023-04-29T18:31:57.465Z,6.95
2023-04-29T18:34:42.724Z,5.47
2023-04-29T18:37:27.632Z,6.22
2023-04-29T18:40:13.130Z,7.18
2023-04-29T18:42:58.569Z,6.00
2023-04-29T18:45:46.737Z,9.02
2023-04-29T18:48:31.874Z,10.45
2023-04-29T18:51:16.953Z,18.77
2023-04-29T18:54:02.493Z,20.38
2023-04-29T18:56:48.625Z,23.90
2023-04-29T18:59:35.858Z,25.20
2023-04-29T19:02:21.001Z,28.00
2023-04-29T19:05:09.251Z,24.40
2023-04-29T19:07:54.439Z,21.77
2023-04-29T19:10:39.246Z,23.83
2023-04-29T19:13:24.807Z,22.23
2023-04-29T19:16:10.115Z,25.38
2023-04-29T19:18:55.695Z,24.33
2023-04-29T19:21:41.020Z,24.90
2023-04-29T19:24:25.951Z,22.90
2023-04-29T19:27:12.044Z,28.15
2023-04-29T19:29:57.441Z,26.65
2023-04-29T19:32:42.557Z,27.83
2023-04-29T19:35:28.138Z,24.63
2023-04-29T19:38:13.249Z,25.53
2023-04-29T19:40:58.223Z,25.85
2023-04-29T19:43:43.028Z,31.40
2023-04-29T19:46:28.471Z,29.70
2023-04-29T19:49:13.840Z,27.02
2023-04-29T19:51:58.907Z,21.77
2023-04-29T19:54:44.085Z,25.10
2023-04-29T19:57:28.952Z,23.75
2023-04-29T20:00:14.708Z,26.55
2023-04-29T20:02:59.551Z,21.13
2023-04-29T20:05:44.821Z,21.73
2023-04-29T20:08:29.701Z,23.15
2023-04-29T20:11:14.920Z,23.25
2023-04-29T20:14:00.290Z,23.08
2023-04-29T20:16:45.687Z,22.95
2023-04-29T20:19:31.401Z,21.07
2023-04-29T20:22:16.454Z,23.17
2023-04-29T20:25:01.961Z,20.90
2023-04-29T20:27:46.832Z,26.20
2023-04-29T20:30:31.982Z,20.58
2023-04-29T20:33:17.477Z,25.67
2023-04-29T20:36:06.749Z,24.85
2023-04-29T20:38:52.201Z,26.08
2023-04-29T20:41:37.656Z,26.77
2023-04-29T20:44:22.803Z,25.45
2023-04-29T20:47:08.407Z,19.17
2023-04-29T20:49:53.884Z,25.45
2023-04-29T20:52:39.144Z,27.02
2023-04-29T20:55:24.142Z,25.23
2023-04-29T20:58:10.761Z,24.13
2023-04-29T21:00:56.490Z,34.07
2023-04-29T21:03:41.747Z,48.70
2023-04-29T21:06:27.036Z,61.45
2023-04-29T21:09:12.144Z,77.93
2023-04-29T21:11:59.335Z,77.75
2023-04-29T21:14:44.631Z,55.43
2023-04-29T21:17:29.690Z,72.07
2023-04-29T21:20:17.074Z,81.60
2023-04-29T21:23:02.682Z,108.30
2023-04-29T21:25:47.736Z,96.95
2023-04-29T21:28:32.673Z,82.07
2023-04-29T21:31:18.044Z,102.72
2023-04-29T21:34:03.582Z,91.80
2023-04-29T21:36:49.208Z,90.93
2023-04-29T21:39:34.242Z,67.20
2023-04-29T21:42:23.120Z,59.73
2023-04-29T21:45:08.452Z,47.95
2023-04-29T21:47:55.406Z,43.95
2023-04-29T21:50:40.529Z,45.60
2023-04-29T21:53:25.456Z,27.38
2023-04-29T21:56:10.703Z,30.90
2023-04-29T21:58:55.708Z,32.50
2023-04-29T22:01:48.545Z,35.97
2023-04-29T22:04:33.659Z,45.58
2023-04-29T22:07:19.657Z,37.45
2023-04-29T22:10:04.708Z,42.50
2023-04-29T22:12:49.825Z,39.17
2023-04-29T22:15:34.914Z,41.08
2023-04-29T22:18:19.843Z,38.05
2023-04-29T22:21:05.466Z,41.97
2023-04-29T22:23:51.080Z,37.67
2023-04-29T22:26:36.088Z,34.40
2023-04-29T22:29:21.472Z,32.78
2023-04-29T22:32:06.826Z,32.95
2023-04-29T22:34:52.215Z,29.30
2023-04-29T22:37:37.126Z,34.27
2023-04-29T22:40:22.204Z,32.20
2023-04-29T22:43:07.095Z,35.75
2023-04-29T22:45:56.027Z,33.72
2023-04-29T22:48:41.463Z,33.88
2023-04-29T22:51:26.682Z,30.83
2023-04-29T22:54:11.627Z,33.33
2023-04-29T22:56:56.559Z,31.30
2023-04-29T22:59:41.881Z,30.42
2023-04-29T23:02:30.051Z,29.58
2023-04-29T23:05:15.107Z,32.50
2023-04-29T23:07:59.872Z,29.17
2023-04-29T23:10:49.380Z,31.95
2023-04-29T23:13:34.687Z,32.53
2023-04-29T23:16:19.634Z,30.13
2023-04-29T23:19:04.946Z,30.43
2023-04-29T23:21:50.753Z,30.30
2023-04-29T23:24:36.070Z,30.02
2023-04-29T23:27:21.264Z,28.55
